Disclaimer

Please do not use the information listed here in-flight or in-navigation, as they are not provided to us by the airports but are provided by volunteers, so they might be outdated.

Search


Regions


Airport information page

No radio frequency information is available.

Airport informations:
Latitude: 08° 32' 22.62" N
Longitude: 099° 56' 41.01" E
Elevation: 13 feet - 4 meters
Operating hours: From sunrise to sunset (SR-SS)
Operating agency: Civil government, landing fees and diplomatic clearance may be required
Timezone: UTC+7
Fuel: N/A

Runway information:
01/19 - 6890 x 148 feet< - >2100 x 45 meters

Recent METARs:
VTSF 170900Z 11009KT 080V140 9999 SCT018 SCT020 29/24 Q1009 NOSIG
VTSF 171000Z 14004KT 120V180 9999 SCT018 SCT 020 28/24 Q1009 NOSIG
VTSF 171000Z 14004KT 120V180 9999 SCT018 SCT 020 28/24 Q1009 NOSIG

Airport on the map: